createdAt,value
2023-05-20T00:01:21.040Z,11.29
2023-05-20T00:03:49.042Z,11.30
2023-05-20T00:06:18.241Z,11.33
2023-05-20T00:08:45.956Z,11.33
2023-05-20T00:11:13.810Z,11.34
2023-05-20T00:13:41.561Z,11.36
2023-05-20T00:16:09.413Z,11.38
2023-05-20T00:18:37.166Z,11.39
2023-05-20T00:21:05.186Z,11.41
2023-05-20T00:23:34.254Z,11.46
2023-05-20T00:26:01.951Z,11.48
2023-05-20T00:28:30.721Z,11.50
2023-05-20T00:30:58.459Z,11.50
2023-05-20T00:33:26.259Z,11.53
2023-05-20T00:35:53.927Z,11.57
2023-05-20T00:38:21.651Z,11.59
2023-05-20T00:40:50.829Z,11.62
2023-05-20T00:43:20.499Z,11.64
2023-05-20T00:45:48.733Z,11.66
2023-05-20T00:48:16.659Z,11.67
2023-05-20T00:50:44.537Z,11.68
2023-05-20T00:53:12.299Z,11.69
2023-05-20T00:55:40.296Z,11.70
2023-05-20T00:58:09.745Z,11.73
2023-05-20T01:00:37.503Z,11.75
2023-05-20T01:03:06.063Z,11.77
2023-05-20T01:05:34.091Z,11.77
2023-05-20T01:08:02.255Z,11.79
2023-05-20T01:10:32.222Z,11.82
2023-05-20T01:13:04.257Z,11.84
2023-05-20T01:15:34.172Z,11.86
2023-05-20T01:18:05.975Z,11.89
2023-05-20T01:20:34.527Z,11.92
2023-05-20T01:23:04.255Z,11.95
2023-05-20T01:25:32.220Z,11.97
2023-05-20T01:28:00.753Z,11.98
2023-05-20T01:30:35.556Z,12.00
2023-05-20T01:33:08.829Z,12.03
2023-05-20T01:35:37.455Z,12.03
2023-05-20T01:38:07.875Z,12.05
2023-05-20T01:40:36.166Z,12.07
2023-05-20T01:43:04.843Z,12.09
2023-05-20T01:45:32.992Z,12.10
2023-05-20T01:48:01.799Z,12.13
2023-05-20T01:50:29.612Z,12.13
2023-05-20T01:52:57.435Z,12.14
2023-05-20T01:55:27.352Z,12.15
2023-05-20T01:57:55.992Z,12.18
2023-05-20T02:00:23.958Z,12.17
2023-05-20T02:02:51.717Z,12.18
2023-05-20T02:05:19.459Z,12.19
2023-05-20T02:07:47.223Z,12.19
2023-05-20T02:10:15.106Z,12.19
2023-05-20T02:12:44.208Z,12.19
2023-05-20T02:15:12.401Z,12.20
2023-05-20T02:17:40.602Z,12.20
2023-05-20T02:20:10.408Z,12.19
2023-05-20T02:22:38.172Z,12.21
2023-05-20T02:25:06.769Z,12.19
2023-05-20T02:27:34.553Z,12.20
2023-05-20T02:30:03.760Z,12.20
2023-05-20T02:32:31.529Z,12.19
2023-05-20T02:35:00.627Z,12.19
2023-05-20T02:37:29.526Z,12.19
2023-05-20T02:39:57.438Z,12.20
2023-05-20T02:42:25.364Z,12.19
2023-05-20T02:44:56.460Z,12.20
2023-05-20T02:47:26.171Z,12.18
2023-05-20T02:49:53.966Z,12.18
2023-05-20T02:52:22.275Z,12.19
2023-05-20T02:54:50.243Z,12.19
2023-05-20T02:57:17.915Z,12.18
2023-05-20T02:59:46.100Z,12.16
2023-05-20T03:02:14.422Z,12.16
2023-05-20T03:04:44.413Z,12.14
2023-05-20T03:07:12.540Z,12.15
2023-05-20T03:09:40.395Z,12.14
2023-05-20T03:12:08.522Z,12.15
2023-05-20T03:14:36.302Z,12.14
2023-05-20T03:17:04.274Z,12.13
2023-05-20T03:19:32.502Z,12.14
2023-05-20T03:22:01.897Z,12.13
2023-05-20T03:24:30.144Z,12.14
2023-05-20T03:27:00.054Z,12.12
2023-05-20T03:29:27.803Z,12.13
2023-05-20T03:31:55.862Z,12.12
2023-05-20T03:34:23.642Z,12.11
2023-05-20T03:36:52.486Z,12.13
2023-05-20T03:39:21.752Z,12.12
2023-05-20T03:41:49.639Z,12.10
2023-05-20T03:44:17.510Z,12.10
2023-05-20T03:46:45.295Z,12.10
2023-05-20T03:49:14.179Z,12.10
2023-05-20T03:51:42.106Z,12.11
2023-05-20T03:54:13.147Z,12.11
2023-05-20T03:56:43.094Z,12.11
2023-05-20T03:59:11.089Z,12.11
2023-05-20T04:01:39.144Z,12.09
2023-05-20T04:04:07.305Z,12.11
2023-05-20T04:06:36.027Z,12.10
2023-05-20T04:09:04.081Z,12.09
2023-05-20T04:11:31.879Z,12.07
2023-05-20T04:14:01.171Z,12.09
2023-05-20T04:16:29.705Z,12.09
2023-05-20T04:18:59.244Z,12.09
2023-05-20T04:21:27.333Z,12.09
2023-05-20T04:23:55.127Z,12.08
2023-05-20T04:26:22.874Z,12.08
2023-05-20T04:28:51.362Z,12.10
2023-05-20T04:31:20.965Z,12.12
2023-05-20T04:33:48.787Z,12.11
2023-05-20T04:36:17.653Z,12.12
2023-05-20T04:38:46.042Z,12.13
2023-05-20T04:41:15.997Z,12.14
2023-05-20T04:43:45.913Z,12.15
2023-05-20T04:46:14.256Z,12.18
2023-05-20T04:48:44.830Z,12.20
2023-05-20T04:51:14.293Z,12.21
2023-05-20T04:53:43.614Z,12.20
2023-05-20T04:56:13.574Z,12.20
2023-05-20T04:58:50.226Z,12.21
2023-05-20T05:01:18.328Z,12.20
2023-05-20T05:03:47.468Z,12.20
2023-05-20T05:06:15.564Z,12.22
2023-05-20T05:08:43.504Z,12.22
2023-05-20T05:11:11.324Z,12.23
2023-05-20T05:13:39.412Z,12.23
2023-05-20T05:16:07.688Z,12.23
2023-05-20T05:18:36.144Z,12.23
2023-05-20T05:21:06.938Z,12.24
2023-05-20T05:23:36.548Z,12.26
2023-05-20T05:26:04.319Z,12.27
2023-05-20T05:28:32.208Z,12.28
2023-05-20T05:31:02.271Z,12.29
2023-05-20T05:33:31.694Z,12.28
2023-05-20T05:36:04.951Z,12.30
2023-05-20T05:38:34.150Z,12.31
2023-05-20T05:41:01.916Z,12.33
2023-05-20T05:43:30.481Z,12.34
2023-05-20T05:45:59.257Z,12.37
2023-05-20T05:48:27.331Z,12.41
2023-05-20T05:50:55.380Z,12.44
2023-05-20T05:53:23.663Z,12.48
2023-05-20T05:55:52.836Z,12.56
2023-05-20T05:58:20.940Z,12.62
2023-05-20T06:00:51.967Z,12.70
2023-05-20T06:03:19.846Z,12.79
2023-05-20T06:05:48.205Z,12.84
2023-05-20T06:08:17.297Z,12.90
2023-05-20T06:10:48.700Z,12.96
2023-05-20T06:13:18.839Z,13.01
2023-05-20T06:15:47.118Z,13.04
2023-05-20T06:18:14.922Z,13.10
2023-05-20T06:20:43.108Z,13.16
2023-05-20T06:23:10.963Z,13.20
2023-05-20T06:25:51.434Z,13.26
2023-05-20T06:28:21.778Z,13.33
2023-05-20T06:30:49.703Z,13.38
2023-05-20T06:33:20.243Z,13.47
2023-05-20T06:35:48.360Z,13.57
2023-05-20T06:38:16.348Z,13.67
2023-05-20T06:40:45.839Z,13.79
2023-05-20T06:43:13.984Z,13.88
2023-05-20T06:45:51.342Z,13.98
2023-05-20T06:48:24.323Z,14.07
2023-05-20T06:50:52.114Z,14.17
2023-05-20T06:53:19.904Z,14.24
2023-05-20T06:55:47.834Z,14.32
2023-05-20T06:58:15.672Z,14.43
2023-05-20T07:00:44.542Z,14.51
2023-05-20T07:03:15.154Z,14.58
2023-05-20T07:05:42.975Z,14.65
2023-05-20T07:08:12.421Z,14.73
2023-05-20T07:10:40.261Z,14.83
2023-05-20T07:13:07.992Z,14.91
2023-05-20T07:15:36.155Z,15.01
2023-05-20T07:18:04.321Z,15.08
2023-05-20T07:20:34.684Z,15.16
2023-05-20T07:23:06.579Z,15.21
2023-05-20T07:25:42.417Z,15.25
2023-05-20T07:28:10.210Z,15.32
2023-05-20T07:31:00.190Z,15.41
2023-05-20T07:33:33.721Z,15.49
2023-05-20T07:36:20.044Z,15.55
2023-05-20T07:39:12.334Z,15.58
2023-05-20T07:41:54.679Z,15.63
2023-05-20T07:44:45.319Z,15.70
2023-05-20T07:47:20.837Z,15.75
2023-05-20T07:49:53.451Z,15.79
2023-05-20T07:52:41.159Z,15.84
2023-05-20T07:55:16.209Z,15.87
2023-05-20T07:57:44.874Z,15.86
2023-05-20T08:00:13.537Z,15.87
2023-05-20T08:02:45.110Z,15.91
2023-05-20T08:05:18.171Z,15.88
2023-05-20T08:07:48.605Z,15.91
2023-05-20T08:10:18.593Z,15.96
2023-05-20T08:12:48.256Z,16.02
2023-05-20T08:15:16.259Z,16.06
2023-05-20T08:17:44.314Z,16.06
2023-05-20T08:20:13.720Z,16.07
2023-05-20T08:22:41.895Z,16.11
2023-05-20T08:25:11.369Z,16.13
2023-05-20T08:27:39.095Z,16.14
2023-05-20T08:30:09.904Z,16.18
2023-05-20T08:32:37.815Z,16.24
2023-05-20T08:35:06.757Z,16.29
2023-05-20T08:37:34.768Z,16.31
2023-05-20T08:40:02.468Z,16.32
2023-05-20T08:42:31.975Z,16.35
2023-05-20T08:45:02.193Z,16.38
2023-05-20T08:47:31.681Z,16.43
2023-05-20T08:49:59.549Z,16.47
2023-05-20T08:52:28.060Z,16.53
2023-05-20T08:54:56.861Z,16.58
2023-05-20T08:57:25.041Z,16.59
2023-05-20T08:59:54.120Z,16.59
2023-05-20T09:02:22.661Z,16.56
2023-05-20T09:04:50.534Z,16.55
2023-05-20T09:07:27.913Z,16.55
2023-05-20T09:09:55.756Z,16.54
2023-05-20T09:12:23.444Z,16.55
2023-05-20T09:14:51.463Z,16.55
2023-05-20T09:17:22.309Z,16.55
2023-05-20T09:19:50.747Z,16.56
2023-05-20T09:22:23.815Z,16.60
2023-05-20T09:24:52.197Z,16.64
2023-05-20T09:27:20.289Z,16.70
2023-05-20T09:29:48.664Z,16.71
2023-05-20T09:32:17.051Z,16.66
2023-05-20T09:34:48.149Z,16.63
2023-05-20T09:37:19.757Z,16.63
2023-05-20T09:39:53.460Z,16.65
2023-05-20T09:42:26.488Z,16.67
2023-05-20T09:44:55.524Z,16.73
2023-05-20T09:47:25.090Z,16.79
2023-05-20T09:49:54.882Z,16.89
2023-05-20T09:52:23.470Z,16.92
2023-05-20T09:54:52.162Z,16.94
2023-05-20T09:57:19.891Z,16.97
2023-05-20T09:59:48.771Z,16.98
2023-05-20T10:02:16.587Z,17.05
2023-05-20T10:04:51.049Z,17.16
2023-05-20T10:07:53.238Z,17.25
2023-05-20T10:10:30.572Z,17.28
2023-05-20T10:13:12.117Z,17.30
2023-05-20T10:16:03.481Z,17.29
2023-05-20T10:19:01.494Z,17.29
2023-05-20T10:21:30.228Z,17.26
2023-05-20T10:24:08.226Z,17.25
2023-05-20T10:26:48.654Z,17.25
2023-05-20T10:29:28.458Z,17.31
2023-05-20T10:32:03.971Z,17.42
2023-05-20T10:35:04.571Z,17.52
2023-05-20T10:37:43.687Z,17.60
2023-05-20T10:40:18.775Z,17.67
2023-05-20T10:42:50.141Z,17.76
2023-05-20T10:45:39.690Z,17.80
2023-05-20T10:48:37.229Z,17.86
2023-05-20T10:51:11.704Z,17.90
2023-05-20T10:53:44.660Z,17.91
2023-05-20T10:56:25.250Z,17.94
2023-05-20T10:59:02.235Z,18.00
2023-05-20T11:01:39.139Z,18.05
2023-05-20T11:04:08.668Z,18.11
2023-05-20T11:06:40.737Z,18.18
2023-05-20T11:09:17.299Z,18.36
2023-05-20T11:11:51.956Z,18.61
2023-05-20T11:14:23.744Z,18.77
2023-05-20T11:16:58.885Z,18.80
2023-05-20T11:19:29.915Z,18.86
2023-05-20T11:22:08.433Z,19.00
2023-05-20T11:24:40.338Z,19.05
2023-05-20T11:27:09.971Z,19.05
2023-05-20T11:29:43.832Z,19.22
2023-05-20T11:32:21.549Z,19.59
2023-05-20T11:34:58.453Z,20.08
2023-05-20T11:37:36.139Z,20.31
2023-05-20T11:40:09.561Z,20.39
2023-05-20T11:42:55.562Z,20.35
2023-05-20T11:45:27.889Z,20.37
2023-05-20T11:48:04.144Z,20.36
2023-05-20T11:50:42.075Z,20.36
2023-05-20T11:53:21.845Z,20.45
2023-05-20T11:55:58.986Z,20.61
2023-05-20T11:58:36.321Z,21.02
2023-05-20T12:01:21.213Z,21.47
2023-05-20T12:04:21.752Z,21.65
2023-05-20T12:06:56.395Z,21.73
2023-05-20T12:09:28.983Z,21.80
2023-05-20T12:12:02.537Z,21.78
2023-05-20T12:14:35.937Z,21.71
2023-05-20T12:17:07.990Z,21.64
2023-05-20T12:19:36.997Z,21.70
2023-05-20T12:22:14.056Z,21.87
2023-05-20T12:24:45.192Z,22.22
2023-05-20T12:27:38.392Z,22.71
2023-05-20T12:30:13.914Z,23.12
2023-05-20T12:32:50.013Z,23.43
2023-05-20T12:35:39.879Z,23.68
2023-05-20T12:38:20.423Z,23.91
2023-05-20T12:40:55.047Z,24.19
2023-05-20T12:43:29.415Z,24.45
2023-05-20T12:46:04.053Z,24.68
2023-05-20T12:48:49.563Z,24.75
2023-05-20T12:51:26.317Z,24.63
2023-05-20T12:54:03.049Z,24.89
2023-05-20T12:56:34.724Z,25.24
2023-05-20T12:59:05.980Z,25.52
2023-05-20T13:01:44.792Z,25.72
2023-05-20T13:04:17.778Z,25.64
2023-05-20T13:06:57.300Z,25.54
2023-05-20T13:09:33.855Z,25.64
2023-05-20T13:12:05.590Z,25.62
2023-05-20T13:14:42.633Z,25.73
2023-05-20T13:17:22.445Z,25.76
2023-05-20T13:19:53.263Z,25.79
2023-05-20T13:22:28.280Z,25.86
2023-05-20T13:24:56.555Z,25.84
2023-05-20T13:27:28.202Z,25.92
2023-05-20T13:30:08.235Z,26.02
2023-05-20T13:32:37.499Z,26.21
2023-05-20T13:35:05.842Z,26.34
2023-05-20T13:37:33.529Z,26.54
2023-05-20T13:40:01.221Z,26.63
2023-05-20T13:42:29.075Z,26.63
2023-05-20T13:44:57.095Z,26.70
2023-05-20T13:47:25.994Z,26.75
2023-05-20T13:49:55.125Z,26.78
2023-05-20T13:52:22.804Z,26.89
2023-05-20T13:54:50.521Z,26.91
2023-05-20T13:57:18.319Z,26.98
2023-05-20T13:59:46.198Z,27.15
2023-05-20T14:02:14.556Z,27.23
2023-05-20T14:04:44.970Z,26.99
2023-05-20T14:07:14.373Z,26.75
2023-05-20T14:09:45.526Z,26.59
2023-05-20T14:12:13.793Z,26.58
2023-05-20T14:14:41.469Z,26.71
2023-05-20T14:17:09.320Z,26.91
2023-05-20T14:19:37.354Z,26.81
2023-05-20T14:22:05.568Z,26.86
2023-05-20T14:24:34.726Z,26.90
2023-05-20T14:27:02.551Z,26.88
2023-05-20T14:29:30.256Z,26.91
2023-05-20T14:31:58.266Z,26.92
2023-05-20T14:34:26.139Z,26.86
2023-05-20T14:36:54.009Z,26.86
2023-05-20T14:39:22.083Z,26.83
2023-05-20T14:41:51.382Z,26.67
2023-05-20T14:44:19.239Z,26.68
2023-05-20T14:46:49.441Z,26.68
2023-05-20T14:49:17.158Z,26.69
2023-05-20T14:51:44.974Z,26.71
2023-05-20T14:54:14.269Z,26.64
2023-05-20T14:56:43.251Z,26.58
2023-05-20T14:59:12.530Z,26.55
2023-05-20T15:01:40.341Z,26.43
2023-05-20T15:04:08.103Z,26.35
2023-05-20T15:06:37.112Z,26.26
2023-05-20T15:09:06.201Z,26.12
2023-05-20T15:11:34.121Z,25.97
2023-05-20T15:14:02.289Z,25.96
2023-05-20T15:16:31.636Z,25.88
2023-05-20T15:19:01.334Z,25.80
2023-05-20T15:21:29.311Z,25.72
2023-05-20T15:23:57.260Z,25.62
2023-05-20T15:26:25.134Z,25.53
2023-05-20T15:28:52.982Z,25.36
2023-05-20T15:31:21.046Z,25.25
2023-05-20T15:33:50.349Z,25.15
2023-05-20T15:36:18.336Z,25.07
2023-05-20T15:38:46.689Z,24.90
2023-05-20T15:41:14.603Z,24.77
2023-05-20T15:43:42.498Z,24.63
2023-05-20T15:46:10.279Z,24.48
2023-05-20T15:48:39.031Z,24.38
2023-05-20T15:51:08.209Z,24.23
2023-05-20T15:53:36.119Z,24.14
2023-05-20T15:56:05.146Z,24.07
2023-05-20T15:58:33.411Z,23.90
2023-05-20T16:01:01.090Z,23.73
2023-05-20T16:03:30.112Z,23.60
2023-05-20T16:05:57.847Z,23.47
2023-05-20T16:08:29.491Z,23.32
2023-05-20T16:10:57.415Z,23.16
2023-05-20T16:13:25.361Z,23.04
2023-05-20T16:15:57.491Z,22.91
2023-05-20T16:18:25.319Z,22.78
2023-05-20T16:20:53.196Z,22.66
2023-05-20T16:23:21.142Z,22.58
2023-05-20T16:25:50.199Z,22.50
2023-05-20T16:28:17.974Z,22.39
2023-05-20T16:30:45.646Z,22.31
2023-05-20T16:33:13.984Z,22.20
2023-05-20T16:35:41.971Z,22.09
2023-05-20T16:38:10.082Z,21.98
2023-05-20T16:40:37.805Z,21.89
2023-05-20T16:43:06.798Z,21.80
2023-05-20T16:45:34.496Z,21.72
2023-05-20T16:48:02.232Z,21.62
2023-05-20T16:50:30.044Z,21.55
2023-05-20T16:53:00.582Z,21.51
2023-05-20T16:55:28.257Z,21.46
2023-05-20T16:57:56.831Z,21.40
2023-05-20T17:00:26.073Z,21.32
2023-05-20T17:02:54.038Z,21.23
2023-05-20T17:05:21.785Z,21.13
2023-05-20T17:07:51.042Z,21.05
2023-05-20T17:10:19.428Z,20.98
2023-05-20T17:12:47.131Z,20.90
2023-05-20T17:15:14.932Z,20.82
2023-05-20T17:17:44.265Z,20.71
2023-05-20T17:20:13.017Z,20.63
2023-05-20T17:22:40.713Z,20.57
2023-05-20T17:25:09.768Z,20.51
2023-05-20T17:27:37.486Z,20.44
2023-05-20T17:30:06.542Z,20.36
2023-05-20T17:32:34.337Z,20.32
2023-05-20T17:35:03.461Z,20.25
2023-05-20T17:37:31.513Z,20.21
2023-05-20T17:39:59.344Z,20.16
2023-05-20T17:42:27.046Z,20.10
2023-05-20T17:44:54.732Z,20.04
2023-05-20T17:47:22.469Z,19.97
2023-05-20T17:49:50.239Z,19.93
2023-05-20T17:52:19.335Z,19.89
2023-05-20T17:54:47.398Z,19.83
2023-05-20T17:57:16.571Z,19.78
2023-05-20T17:59:45.696Z,19.74
2023-05-20T18:02:13.955Z,19.68
2023-05-20T18:04:41.807Z,19.61
2023-05-20T18:07:09.635Z,19.56
2023-05-20T18:09:39.567Z,19.50
2023-05-20T18:12:08.642Z,19.44
2023-05-20T18:14:36.861Z,19.40
2023-05-20T18:17:04.642Z,19.35
2023-05-20T18:19:33.837Z,19.30
2023-05-20T18:22:02.738Z,19.25
2023-05-20T18:24:30.726Z,19.19
2023-05-20T18:26:59.798Z,19.14
2023-05-20T18:29:27.494Z,19.10
2023-05-20T18:31:55.778Z,19.04
2023-05-20T18:34:24.168Z,18.99
2023-05-20T18:36:52.496Z,18.93
2023-05-20T18:39:21.251Z,18.87
2023-05-20T18:41:49.360Z,18.80
2023-05-20T18:44:19.844Z,18.76
2023-05-20T18:46:47.860Z,18.69
2023-05-20T18:49:15.814Z,18.64
2023-05-20T18:51:44.004Z,18.59
2023-05-20T18:54:11.761Z,18.53
2023-05-20T18:56:39.504Z,18.46
2023-05-20T18:59:07.205Z,18.40
2023-05-20T19:01:36.682Z,18.35
2023-05-20T19:04:04.572Z,18.28
2023-05-20T19:06:35.174Z,18.24
2023-05-20T19:09:03.683Z,18.18
2023-05-20T19:11:32.092Z,18.12
2023-05-20T19:14:00.208Z,18.07
2023-05-20T19:16:28.418Z,18.00
2023-05-20T19:18:57.832Z,17.94
2023-05-20T19:21:25.650Z,17.86
2023-05-20T19:23:53.283Z,17.80
2023-05-20T19:26:21.053Z,17.71
2023-05-20T19:28:48.755Z,17.65
2023-05-20T19:31:21.027Z,17.58
2023-05-20T19:34:00.191Z,17.53
2023-05-20T19:36:42.940Z,17.46
2023-05-20T19:39:14.374Z,17.42
2023-05-20T19:41:51.234Z,17.35
2023-05-20T19:44:22.599Z,17.29
2023-05-20T19:46:57.296Z,17.24
2023-05-20T19:49:27.688Z,17.16
2023-05-20T19:51:59.681Z,17.08
2023-05-20T19:54:27.934Z,17.02
2023-05-20T19:56:55.689Z,16.97
2023-05-20T19:59:23.634Z,16.91
2023-05-20T20:01:52.396Z,16.87
2023-05-20T20:04:20.158Z,16.82
2023-05-20T20:06:48.210Z,16.78
2023-05-20T20:09:17.323Z,16.75
2023-05-20T20:11:45.140Z,16.71
2023-05-20T20:14:13.565Z,16.67
2023-05-20T20:16:41.822Z,16.63
2023-05-20T20:19:11.862Z,16.60
2023-05-20T20:21:40.270Z,16.57
2023-05-20T20:24:08.042Z,16.52
2023-05-20T20:26:37.276Z,16.47
2023-05-20T20:29:04.992Z,16.43
2023-05-20T20:31:32.733Z,16.41
2023-05-20T20:34:00.473Z,16.38
2023-05-20T20:36:31.743Z,16.35
2023-05-20T20:39:02.564Z,16.31
2023-05-20T20:41:30.378Z,16.28
2023-05-20T20:43:59.572Z,16.25
2023-05-20T20:46:28.728Z,16.23
2023-05-20T20:48:56.535Z,16.21
2023-05-20T20:51:24.341Z,16.18
2023-05-20T20:53:52.220Z,16.17
2023-05-20T20:56:19.927Z,16.16
2023-05-20T20:58:47.631Z,16.12
2023-05-20T21:01:17.556Z,16.10
2023-05-20T21:03:45.624Z,16.08
2023-05-20T21:06:14.228Z,16.04
2023-05-20T21:08:42.678Z,16.01
2023-05-20T21:11:10.522Z,15.98
2023-05-20T21:13:39.659Z,15.97
2023-05-20T21:16:07.464Z,15.94
2023-05-20T21:18:36.612Z,15.90
2023-05-20T21:21:05.594Z,15.86
2023-05-20T21:23:33.354Z,15.81
2023-05-20T21:26:01.103Z,15.78
2023-05-20T21:28:28.816Z,15.73
2023-05-20T21:30:56.588Z,15.69
2023-05-20T21:33:24.379Z,15.65
2023-05-20T21:35:53.445Z,15.61
2023-05-20T21:38:21.215Z,15.56
2023-05-20T21:40:49.240Z,15.52
2023-05-20T21:43:17.136Z,15.50
2023-05-20T21:45:45.785Z,15.45
2023-05-20T21:48:13.504Z,15.42
2023-05-20T21:50:41.586Z,15.36
2023-05-20T21:53:10.685Z,15.32
2023-05-20T21:55:38.595Z,15.27
2023-05-20T21:58:06.604Z,15.22
2023-05-20T22:00:35.048Z,15.18
2023-05-20T22:03:02.830Z,15.12
2023-05-20T22:05:30.666Z,15.09
2023-05-20T22:08:00.416Z,15.04
2023-05-20T22:10:29.597Z,14.99
2023-05-20T22:12:58.172Z,14.96
2023-05-20T22:15:26.209Z,14.92
2023-05-20T22:17:54.807Z,14.88
2023-05-20T22:20:22.822Z,14.84
2023-05-20T22:22:50.615Z,14.80
2023-05-20T22:25:18.560Z,14.77
2023-05-20T22:27:48.267Z,14.73
2023-05-20T22:30:16.057Z,14.69
2023-05-20T22:32:44.193Z,14.66
2023-05-20T22:35:13.357Z,14.62
2023-05-20T22:37:41.821Z,14.59
2023-05-20T22:40:10.756Z,14.57
2023-05-20T22:42:38.516Z,14.55
2023-05-20T22:45:08.933Z,14.51
2023-05-20T22:47:36.796Z,14.47
2023-05-20T22:50:05.279Z,14.47
2023-05-20T22:52:33.625Z,14.43
2023-05-20T22:55:01.378Z,14.40
2023-05-20T22:57:29.599Z,14.35
2023-05-20T22:59:57.375Z,14.33
2023-05-20T23:02:26.462Z,14.28
2023-05-20T23:04:54.211Z,14.26
2023-05-20T23:07:22.013Z,14.21
2023-05-20T23:09:49.714Z,14.17
2023-05-20T23:12:17.556Z,14.15
2023-05-20T23:14:45.244Z,14.10
2023-05-20T23:17:13.060Z,14.06
2023-05-20T23:19:42.937Z,14.03
2023-05-20T23:22:10.650Z,13.99
2023-05-20T23:24:38.418Z,13.96
2023-05-20T23:27:06.494Z,13.93
2023-05-20T23:29:34.351Z,13.91
2023-05-20T23:32:02.064Z,13.88
2023-05-20T23:34:30.830Z,13.83
2023-05-20T23:36:59.988Z,13.79
2023-05-20T23:39:27.753Z,13.77
2023-05-20T23:41:55.651Z,13.75
2023-05-20T23:44:23.342Z,13.73
2023-05-20T23:46:51.171Z,13.70
2023-05-20T23:49:24.439Z,13.68
2023-05-20T23:51:52.887Z,13.66
2023-05-20T23:54:22.944Z,13.64
2023-05-20T23:56:50.817Z,13.62
2023-05-20T23:59:18.694Z,13.60
